sensor_id;sensor_type;location;lat;lon;timestamp;P1;durP1;ratioP1;P2;durP2;ratioP2
7573;SDS011;3828;48.922;9.116;2024-02-26T00:00:50;1.40;;;1.40;;
7573;SDS011;3828;48.922;9.116;2024-02-26T00:03:17;1.57;;;1.57;;
7573;SDS011;3828;48.922;9.116;2024-02-26T00:05:44;1.67;;;1.67;;
7573;SDS011;3828;48.922;9.116;2024-02-26T00:08:12;1.60;;;1.60;;
7573;SDS011;3828;48.922;9.116;2024-02-26T00:10:39;1.30;;;1.30;;
7573;SDS011;3828;48.922;9.116;2024-02-26T00:13:07;1.40;;;1.40;;
7573;SDS011;3828;48.922;9.116;2024-02-26T00:15:34;1.40;;;1.40;;
7573;SDS011;3828;48.922;9.116;2024-02-26T00:18:02;1.30;;;1.30;;
7573;SDS011;3828;48.922;9.116;2024-02-26T00:20:29;1.30;;;1.30;;
7573;SDS011;3828;48.922;9.116;2024-02-26T00:22:56;1.40;;;1.40;;
7573;SDS011;3828;48.922;9.116;2024-02-26T00:25:23;1.50;;;1.50;;
7573;SDS011;3828;48.922;9.116;2024-02-26T00:27:50;1.43;;;1.43;;
7573;SDS011;3828;48.922;9.116;2024-02-26T00:30:18;1.30;;;1.30;;
7573;SDS011;3828;48.922;9.116;2024-02-26T00:32:44;1.40;;;1.40;;
7573;SDS011;3828;48.922;9.116;2024-02-26T00:35:13;1.30;;;1.30;;
7573;SDS011;3828;48.922;9.116;2024-02-26T00:37:40;1.37;;;1.37;;
7573;SDS011;3828;48.922;9.116;2024-02-26T00:40:08;1.30;;;1.30;;
7573;SDS011;3828;48.922;9.116;2024-02-26T00:42:35;1.40;;;1.40;;
7573;SDS011;3828;48.922;9.116;2024-02-26T00:45:02;1.37;;;1.37;;
7573;SDS011;3828;48.922;9.116;2024-02-26T00:47:37;1.33;;;1.33;;
7573;SDS011;3828;48.922;9.116;2024-02-26T00:50:06;1.30;;;1.30;;
7573;SDS011;3828;48.922;9.116;2024-02-26T00:52:36;1.90;;;1.90;;
7573;SDS011;3828;48.922;9.116;2024-02-26T00:55:03;1.40;;;1.40;;
7573;SDS011;3828;48.922;9.116;2024-02-26T00:57:31;1.60;;;1.60;;
7573;SDS011;3828;48.922;9.116;2024-02-26T00:59:58;1.47;;;1.47;;
7573;SDS011;3828;48.922;9.116;2024-02-26T01:02:25;1.57;;;1.57;;
7573;SDS011;3828;48.922;9.116;2024-02-26T01:04:52;1.40;;;1.40;;
7573;SDS011;3828;48.922;9.116;2024-02-26T01:07:19;1.80;;;1.80;;
7573;SDS011;3828;48.922;9.116;2024-02-26T01:09:48;1.40;;;1.40;;
7573;SDS011;3828;48.922;9.116;2024-02-26T01:12:15;1.70;;;1.70;;
7573;SDS011;3828;48.922;9.116;2024-02-26T01:14:42;1.40;;;1.40;;
7573;SDS011;3828;48.922;9.116;2024-02-26T01:17:09;1.63;;;1.63;;
7573;SDS011;3828;48.922;9.116;2024-02-26T01:19:35;1.50;;;1.50;;
7573;SDS011;3828;48.922;9.116;2024-02-26T01:22:03;1.53;;;1.53;;
7573;SDS011;3828;48.922;9.116;2024-02-26T01:24:29;1.60;;;1.60;;
7573;SDS011;3828;48.922;9.116;2024-02-26T01:26:58;1.30;;;1.30;;
7573;SDS011;3828;48.922;9.116;2024-02-26T01:29:25;1.43;;;1.43;;
7573;SDS011;3828;48.922;9.116;2024-02-26T01:31:52;1.40;;;1.40;;
7573;SDS011;3828;48.922;9.116;2024-02-26T01:34:20;1.50;;;1.50;;
7573;SDS011;3828;48.922;9.116;2024-02-26T01:36:47;1.60;;;1.60;;
7573;SDS011;3828;48.922;9.116;2024-02-26T01:39:14;1.50;;;1.50;;
7573;SDS011;3828;48.922;9.116;2024-02-26T01:41:41;1.33;;;1.33;;
7573;SDS011;3828;48.922;9.116;2024-02-26T01:44:09;1.40;;;1.40;;
7573;SDS011;3828;48.922;9.116;2024-02-26T01:46:38;1.43;;;1.43;;
7573;SDS011;3828;48.922;9.116;2024-02-26T01:49:05;1.77;;;1.77;;
7573;SDS011;3828;48.922;9.116;2024-02-26T01:51:33;1.40;;;1.40;;
7573;SDS011;3828;48.922;9.116;2024-02-26T01:54:01;1.60;;;1.60;;
7573;SDS011;3828;48.922;9.116;2024-02-26T01:56:29;1.40;;;1.40;;
7573;SDS011;3828;48.922;9.116;2024-02-26T01:58:57;1.40;;;1.40;;
7573;SDS011;3828;48.922;9.116;2024-02-26T02:01:26;1.90;;;1.90;;
7573;SDS011;3828;48.922;9.116;2024-02-26T02:03:54;1.60;;;1.60;;
7573;SDS011;3828;48.922;9.116;2024-02-26T02:06:22;1.90;;;1.90;;
7573;SDS011;3828;48.922;9.116;2024-02-26T02:08:49;1.67;;;1.67;;
7573;SDS011;3828;48.922;9.116;2024-02-26T02:11:16;1.73;;;1.73;;
7573;SDS011;3828;48.922;9.116;2024-02-26T02:13:43;1.77;;;1.77;;
7573;SDS011;3828;48.922;9.116;2024-02-26T02:16:11;1.80;;;1.80;;
7573;SDS011;3828;48.922;9.116;2024-02-26T02:18:39;2.00;;;2.00;;
7573;SDS011;3828;48.922;9.116;2024-02-26T02:21:08;1.60;;;1.60;;
7573;SDS011;3828;48.922;9.116;2024-02-26T02:23:34;1.70;;;1.70;;
7573;SDS011;3828;48.922;9.116;2024-02-26T02:26:02;1.50;;;1.50;;
7573;SDS011;3828;48.922;9.116;2024-02-26T02:28:29;1.80;;;1.80;;
7573;SDS011;3828;48.922;9.116;2024-02-26T02:30:56;1.70;;;1.70;;
7573;SDS011;3828;48.922;9.116;2024-02-26T02:33:24;1.50;;;1.50;;
7573;SDS011;3828;48.922;9.116;2024-02-26T02:35:52;1.57;;;1.57;;
7573;SDS011;3828;48.922;9.116;2024-02-26T02:38:21;1.40;;;1.40;;
7573;SDS011;3828;48.922;9.116;2024-02-26T02:40:50;1.47;;;1.47;;
7573;SDS011;3828;48.922;9.116;2024-02-26T02:43:18;1.67;;;1.67;;
7573;SDS011;3828;48.922;9.116;2024-02-26T02:45:45;1.40;;;1.40;;
7573;SDS011;3828;48.922;9.116;2024-02-26T02:48:12;1.57;;;1.57;;
7573;SDS011;3828;48.922;9.116;2024-02-26T02:50:39;1.53;;;1.53;;
7573;SDS011;3828;48.922;9.116;2024-02-26T02:53:06;1.80;;;1.80;;
7573;SDS011;3828;48.922;9.116;2024-02-26T02:55:35;3.30;;;3.20;;
7573;SDS011;3828;48.922;9.116;2024-02-26T02:58:02;1.40;;;1.40;;
7573;SDS011;3828;48.922;9.116;2024-02-26T03:00:29;1.30;;;1.30;;
7573;SDS011;3828;48.922;9.116;2024-02-26T03:02:56;1.40;;;1.40;;
7573;SDS011;3828;48.922;9.116;2024-02-26T03:05:23;1.50;;;1.50;;
7573;SDS011;3828;48.922;9.116;2024-02-26T03:07:50;1.50;;;1.50;;
7573;SDS011;3828;48.922;9.116;2024-02-26T03:10:17;1.60;;;1.60;;
7573;SDS011;3828;48.922;9.116;2024-02-26T03:12:46;1.50;;;1.50;;
7573;SDS011;3828;48.922;9.116;2024-02-26T03:15:13;1.37;;;1.37;;
7573;SDS011;3828;48.922;9.116;2024-02-26T03:17:40;1.50;;;1.50;;
7573;SDS011;3828;48.922;9.116;2024-02-26T03:20:08;1.70;;;1.70;;
7573;SDS011;3828;48.922;9.116;2024-02-26T03:22:35;1.40;;;1.40;;
7573;SDS011;3828;48.922;9.116;2024-02-26T03:25:04;1.60;;;1.60;;
7573;SDS011;3828;48.922;9.116;2024-02-26T03:27:32;1.40;;;1.40;;
7573;SDS011;3828;48.922;9.116;2024-02-26T03:30:00;1.30;;;1.30;;
7573;SDS011;3828;48.922;9.116;2024-02-26T03:32:27;1.60;;;1.60;;
7573;SDS011;3828;48.922;9.116;2024-02-26T03:34:54;1.30;;;1.30;;
7573;SDS011;3828;48.922;9.116;2024-02-26T03:37:21;1.70;;;1.70;;
7573;SDS011;3828;48.922;9.116;2024-02-26T03:39:48;1.40;;;1.40;;
7573;SDS011;3828;48.922;9.116;2024-02-26T03:42:15;1.70;;;1.70;;
7573;SDS011;3828;48.922;9.116;2024-02-26T03:44:42;1.27;;;1.27;;
7573;SDS011;3828;48.922;9.116;2024-02-26T03:47:11;1.70;;;1.70;;
7573;SDS011;3828;48.922;9.116;2024-02-26T03:49:37;1.20;;;1.20;;
7573;SDS011;3828;48.922;9.116;2024-02-26T03:52:05;1.60;;;1.60;;
7573;SDS011;3828;48.922;9.116;2024-02-26T03:54:32;1.50;;;1.50;;
7573;SDS011;3828;48.922;9.116;2024-02-26T03:56:59;1.77;;;1.77;;
7573;SDS011;3828;48.922;9.116;2024-02-26T03:59:26;1.50;;;1.50;;
7573;SDS011;3828;48.922;9.116;2024-02-26T04:01:53;1.27;;;1.27;;
7573;SDS011;3828;48.922;9.116;2024-02-26T04:04:21;1.50;;;1.50;;
7573;SDS011;3828;48.922;9.116;2024-02-26T04:06:48;1.63;;;1.63;;
7573;SDS011;3828;48.922;9.116;2024-02-26T04:09:15;1.57;;;1.57;;
7573;SDS011;3828;48.922;9.116;2024-02-26T04:11:42;1.40;;;1.40;;
7573;SDS011;3828;48.922;9.116;2024-02-26T04:14:09;1.50;;;1.50;;
7573;SDS011;3828;48.922;9.116;2024-02-26T04:16:37;1.60;;;1.60;;
7573;SDS011;3828;48.922;9.116;2024-02-26T04:19:04;1.40;;;1.40;;
7573;SDS011;3828;48.922;9.116;2024-02-26T04:21:33;1.60;;;1.60;;
7573;SDS011;3828;48.922;9.116;2024-02-26T04:24:00;1.40;;;1.40;;
7573;SDS011;3828;48.922;9.116;2024-02-26T04:26:27;2.10;;;2.00;;
7573;SDS011;3828;48.922;9.116;2024-02-26T04:28:54;1.50;;;1.50;;
7573;SDS011;3828;48.922;9.116;2024-02-26T04:31:21;1.60;;;1.60;;
7573;SDS011;3828;48.922;9.116;2024-02-26T04:33:48;2.47;;;2.37;;
7573;SDS011;3828;48.922;9.116;2024-02-26T04:36:15;1.20;;;1.20;;
7573;SDS011;3828;48.922;9.116;2024-02-26T04:38:44;1.87;;;1.87;;
7573;SDS011;3828;48.922;9.116;2024-02-26T04:41:11;1.40;;;1.40;;
7573;SDS011;3828;48.922;9.116;2024-02-26T04:43:38;2.07;;;1.97;;
7573;SDS011;3828;48.922;9.116;2024-02-26T04:46:06;1.30;;;1.30;;
7573;SDS011;3828;48.922;9.116;2024-02-26T04:48:34;1.60;;;1.60;;
7573;SDS011;3828;48.922;9.116;2024-02-26T04:51:01;1.47;;;1.47;;
7573;SDS011;3828;48.922;9.116;2024-02-26T04:53:28;1.90;;;1.90;;
7573;SDS011;3828;48.922;9.116;2024-02-26T04:55:57;1.40;;;1.40;;
7573;SDS011;3828;48.922;9.116;2024-02-26T04:58:24;1.40;;;1.40;;
7573;SDS011;3828;48.922;9.116;2024-02-26T05:00:51;1.33;;;1.33;;
7573;SDS011;3828;48.922;9.116;2024-02-26T05:03:18;1.50;;;1.50;;
7573;SDS011;3828;48.922;9.116;2024-02-26T05:05:44;1.47;;;1.47;;
7573;SDS011;3828;48.922;9.116;2024-02-26T05:08:12;1.30;;;1.30;;
7573;SDS011;3828;48.922;9.116;2024-02-26T05:10:38;1.37;;;1.37;;
7573;SDS011;3828;48.922;9.116;2024-02-26T05:13:07;1.43;;;1.43;;
7573;SDS011;3828;48.922;9.116;2024-02-26T05:15:34;1.20;;;1.20;;
7573;SDS011;3828;48.922;9.116;2024-02-26T05:18:01;1.40;;;1.40;;
7573;SDS011;3828;48.922;9.116;2024-02-26T05:20:29;1.43;;;1.43;;
7573;SDS011;3828;48.922;9.116;2024-02-26T05:22:56;1.30;;;1.30;;
7573;SDS011;3828;48.922;9.116;2024-02-26T05:25:24;1.27;;;1.27;;
7573;SDS011;3828;48.922;9.116;2024-02-26T05:27:51;1.60;;;1.60;;
7573;SDS011;3828;48.922;9.116;2024-02-26T05:30:20;1.50;;;1.50;;
7573;SDS011;3828;48.922;9.116;2024-02-26T05:32:46;1.53;;;1.53;;
7573;SDS011;3828;48.922;9.116;2024-02-26T05:35:13;1.50;;;1.50;;
7573;SDS011;3828;48.922;9.116;2024-02-26T05:37:41;1.50;;;1.50;;
7573;SDS011;3828;48.922;9.116;2024-02-26T05:40:08;1.30;;;1.30;;
7573;SDS011;3828;48.922;9.116;2024-02-26T05:42:35;1.30;;;1.30;;
7573;SDS011;3828;48.922;9.116;2024-02-26T05:45:02;1.60;;;1.60;;
7573;SDS011;3828;48.922;9.116;2024-02-26T05:47:33;1.40;;;1.40;;
7573;SDS011;3828;48.922;9.116;2024-02-26T05:49:59;1.40;;;1.40;;
7573;SDS011;3828;48.922;9.116;2024-02-26T05:52:28;1.40;;;1.40;;
7573;SDS011;3828;48.922;9.116;2024-02-26T05:54:56;1.60;;;1.60;;
7573;SDS011;3828;48.922;9.116;2024-02-26T05:57:23;1.50;;;1.50;;
7573;SDS011;3828;48.922;9.116;2024-02-26T05:59:50;2.23;;;2.13;;
7573;SDS011;3828;48.922;9.116;2024-02-26T06:02:17;1.57;;;1.57;;
7573;SDS011;3828;48.922;9.116;2024-02-26T06:04:46;1.63;;;1.63;;
7573;SDS011;3828;48.922;9.116;2024-02-26T06:07:13;1.60;;;1.60;;
7573;SDS011;3828;48.922;9.116;2024-02-26T06:09:40;1.90;;;1.90;;
7573;SDS011;3828;48.922;9.116;2024-02-26T06:12:07;1.50;;;1.50;;
7573;SDS011;3828;48.922;9.116;2024-02-26T06:14:34;1.60;;;1.60;;
7573;SDS011;3828;48.922;9.116;2024-02-26T06:17:01;1.50;;;1.50;;
7573;SDS011;3828;48.922;9.116;2024-02-26T06:19:28;1.63;;;1.63;;
7573;SDS011;3828;48.922;9.116;2024-02-26T06:21:58;1.40;;;1.40;;
7573;SDS011;3828;48.922;9.116;2024-02-26T06:24:25;1.50;;;1.50;;
7573;SDS011;3828;48.922;9.116;2024-02-26T06:26:51;1.43;;;1.43;;
7573;SDS011;3828;48.922;9.116;2024-02-26T06:29:18;1.80;;;1.80;;
7573;SDS011;3828;48.922;9.116;2024-02-26T06:31:46;1.50;;;1.50;;
7573;SDS011;3828;48.922;9.116;2024-02-26T06:34:15;1.40;;;1.40;;
7573;SDS011;3828;48.922;9.116;2024-02-26T06:36:42;1.40;;;1.40;;
7573;SDS011;3828;48.922;9.116;2024-02-26T06:39:10;1.40;;;1.40;;
7573;SDS011;3828;48.922;9.116;2024-02-26T06:41:37;1.50;;;1.50;;
7573;SDS011;3828;48.922;9.116;2024-02-26T06:44:04;1.60;;;1.60;;
7573;SDS011;3828;48.922;9.116;2024-02-26T06:46:32;1.60;;;1.60;;
7573;SDS011;3828;48.922;9.116;2024-02-26T06:48:59;1.50;;;1.50;;
7573;SDS011;3828;48.922;9.116;2024-02-26T06:51:26;1.50;;;1.50;;
7573;SDS011;3828;48.922;9.116;2024-02-26T06:53:53;1.70;;;1.70;;
7573;SDS011;3828;48.922;9.116;2024-02-26T06:56:21;1.50;;;1.50;;
7573;SDS011;3828;48.922;9.116;2024-02-26T06:58:47;1.50;;;1.50;;
7573;SDS011;3828;48.922;9.116;2024-02-26T07:01:14;1.50;;;1.50;;
7573;SDS011;3828;48.922;9.116;2024-02-26T07:03:44;1.57;;;1.57;;
7573;SDS011;3828;48.922;9.116;2024-02-26T07:06:11;1.53;;;1.53;;
7573;SDS011;3828;48.922;9.116;2024-02-26T07:08:39;1.70;;;1.70;;
7573;SDS011;3828;48.922;9.116;2024-02-26T07:11:07;1.50;;;1.50;;
7573;SDS011;3828;48.922;9.116;2024-02-26T07:13:35;1.50;;;1.50;;
7573;SDS011;3828;48.922;9.116;2024-02-26T07:16:02;1.50;;;1.50;;
7573;SDS011;3828;48.922;9.116;2024-02-26T07:18:29;1.70;;;1.70;;
7573;SDS011;3828;48.922;9.116;2024-02-26T07:20:56;1.40;;;1.40;;
7573;SDS011;3828;48.922;9.116;2024-02-26T07:23:23;1.53;;;1.53;;
7573;SDS011;3828;48.922;9.116;2024-02-26T07:25:53;1.57;;;1.57;;
7573;SDS011;3828;48.922;9.116;2024-02-26T07:28:20;1.73;;;1.73;;
7573;SDS011;3828;48.922;9.116;2024-02-26T07:30:48;2.10;;;2.00;;
7573;SDS011;3828;48.922;9.116;2024-02-26T07:33:15;1.60;;;1.60;;
7573;SDS011;3828;48.922;9.116;2024-02-26T07:35:42;1.97;;;1.97;;
7573;SDS011;3828;48.922;9.116;2024-02-26T07:38:09;1.60;;;1.60;;
7573;SDS011;3828;48.922;9.116;2024-02-26T07:40:38;1.53;;;1.53;;
7573;SDS011;3828;48.922;9.116;2024-02-26T07:43:05;1.30;;;1.30;;
7573;SDS011;3828;48.922;9.116;2024-02-26T07:45:32;1.57;;;1.57;;
7573;SDS011;3828;48.922;9.116;2024-02-26T07:48:02;1.43;;;1.43;;
7573;SDS011;3828;48.922;9.116;2024-02-26T07:50:30;1.70;;;1.70;;
7573;SDS011;3828;48.922;9.116;2024-02-26T07:52:57;1.43;;;1.43;;
7573;SDS011;3828;48.922;9.116;2024-02-26T07:55:23;1.60;;;1.60;;
7573;SDS011;3828;48.922;9.116;2024-02-26T07:57:50;1.83;;;1.83;;
7573;SDS011;3828;48.922;9.116;2024-02-26T08:00:17;1.50;;;1.50;;
7573;SDS011;3828;48.922;9.116;2024-02-26T08:02:44;1.50;;;1.50;;
7573;SDS011;3828;48.922;9.116;2024-02-26T08:05:13;2.27;;;2.17;;
7573;SDS011;3828;48.922;9.116;2024-02-26T08:07:40;1.50;;;1.50;;
7573;SDS011;3828;48.922;9.116;2024-02-26T08:10:08;1.63;;;1.63;;
7573;SDS011;3828;48.922;9.116;2024-02-26T08:12:35;1.30;;;1.30;;
7573;SDS011;3828;48.922;9.116;2024-02-26T08:15:03;1.63;;;1.63;;
7573;SDS011;3828;48.922;9.116;2024-02-26T08:17:31;1.57;;;1.57;;
7573;SDS011;3828;48.922;9.116;2024-02-26T08:19:58;1.53;;;1.53;;
7573;SDS011;3828;48.922;9.116;2024-02-26T08:22:26;1.40;;;1.40;;
7573;SDS011;3828;48.922;9.116;2024-02-26T08:24:53;1.50;;;1.50;;
7573;SDS011;3828;48.922;9.116;2024-02-26T08:27:20;1.30;;;1.30;;
7573;SDS011;3828;48.922;9.116;2024-02-26T08:29:47;1.50;;;1.50;;
7573;SDS011;3828;48.922;9.116;2024-02-26T08:32:14;1.60;;;1.60;;
7573;SDS011;3828;48.922;9.116;2024-02-26T08:34:41;1.47;;;1.47;;
7573;SDS011;3828;48.922;9.116;2024-02-26T08:37:08;1.73;;;1.73;;
7573;SDS011;3828;48.922;9.116;2024-02-26T08:39:38;1.20;;;1.20;;
7573;SDS011;3828;48.922;9.116;2024-02-26T08:42:12;1.83;;;1.83;;
7573;SDS011;3828;48.922;9.116;2024-02-26T08:44:39;1.40;;;1.40;;
7573;SDS011;3828;48.922;9.116;2024-02-26T08:47:06;2.00;;;2.00;;
7573;SDS011;3828;48.922;9.116;2024-02-26T08:49:33;1.33;;;1.33;;
7573;SDS011;3828;48.922;9.116;2024-02-26T08:52:00;1.70;;;1.70;;
7573;SDS011;3828;48.922;9.116;2024-02-26T08:54:27;1.20;;;1.20;;
7573;SDS011;3828;48.922;9.116;2024-02-26T08:56:55;1.60;;;1.60;;
7573;SDS011;3828;48.922;9.116;2024-02-26T08:59:22;1.40;;;1.40;;
7573;SDS011;3828;48.922;9.116;2024-02-26T09:01:49;1.27;;;1.27;;
7573;SDS011;3828;48.922;9.116;2024-02-26T09:04:19;1.20;;;1.20;;
7573;SDS011;3828;48.922;9.116;2024-02-26T09:06:49;1.30;;;1.30;;
7573;SDS011;3828;48.922;9.116;2024-02-26T09:09:16;1.20;;;1.20;;
7573;SDS011;3828;48.922;9.116;2024-02-26T09:11:43;1.30;;;1.30;;
7573;SDS011;3828;48.922;9.116;2024-02-26T09:14:12;1.37;;;1.37;;
7573;SDS011;3828;48.922;9.116;2024-02-26T09:16:38;1.60;;;1.60;;
7573;SDS011;3828;48.922;9.116;2024-02-26T09:19:05;1.30;;;1.30;;
7573;SDS011;3828;48.922;9.116;2024-02-26T09:21:32;1.73;;;1.73;;
7573;SDS011;3828;48.922;9.116;2024-02-26T09:23:59;1.50;;;1.50;;
7573;SDS011;3828;48.922;9.116;2024-02-26T09:26:26;1.50;;;1.50;;
7573;SDS011;3828;48.922;9.116;2024-02-26T09:28:53;1.20;;;1.20;;
7573;SDS011;3828;48.922;9.116;2024-02-26T09:31:21;1.53;;;1.53;;
7573;SDS011;3828;48.922;9.116;2024-02-26T09:33:48;1.57;;;1.57;;
7573;SDS011;3828;48.922;9.116;2024-02-26T09:36:15;1.20;;;1.20;;
7573;SDS011;3828;48.922;9.116;2024-02-26T09:38:42;1.70;;;1.70;;
7573;SDS011;3828;48.922;9.116;2024-02-26T09:41:10;1.30;;;1.30;;
7573;SDS011;3828;48.922;9.116;2024-02-26T09:43:43;1.40;;;1.40;;
7573;SDS011;3828;48.922;9.116;2024-02-26T09:46:11;1.43;;;1.43;;
7573;SDS011;3828;48.922;9.116;2024-02-26T09:48:39;1.17;;;1.17;;
7573;SDS011;3828;48.922;9.116;2024-02-26T09:51:08;1.10;;;1.10;;
7573;SDS011;3828;48.922;9.116;2024-02-26T09:53:36;1.40;;;1.40;;
7573;SDS011;3828;48.922;9.116;2024-02-26T09:56:07;1.20;;;1.20;;
7573;SDS011;3828;48.922;9.116;2024-02-26T09:58:34;1.50;;;1.50;;
7573;SDS011;3828;48.922;9.116;2024-02-26T10:01:02;1.17;;;1.17;;
7573;SDS011;3828;48.922;9.116;2024-02-26T10:03:37;1.50;;;1.50;;
7573;SDS011;3828;48.922;9.116;2024-02-26T10:06:09;1.20;;;1.20;;
7573;SDS011;3828;48.922;9.116;2024-02-26T10:08:36;1.20;;;1.20;;
7573;SDS011;3828;48.922;9.116;2024-02-26T10:11:03;1.40;;;1.40;;
7573;SDS011;3828;48.922;9.116;2024-02-26T10:13:33;1.30;;;1.30;;
7573;SDS011;3828;48.922;9.116;2024-02-26T10:16:01;1.27;;;1.27;;
7573;SDS011;3828;48.922;9.116;2024-02-26T10:21:15;1.10;;;1.10;;
7573;SDS011;3828;48.922;9.116;2024-02-26T10:23:43;1.10;;;1.10;;
7573;SDS011;3828;48.922;9.116;2024-02-26T10:26:11;1.20;;;1.20;;
7573;SDS011;3828;48.922;9.116;2024-02-26T10:28:39;1.43;;;1.43;;
7573;SDS011;3828;48.922;9.116;2024-02-26T10:31:06;1.20;;;1.20;;
7573;SDS011;3828;48.922;9.116;2024-02-26T10:33:33;1.00;;;1.00;;
7573;SDS011;3828;48.922;9.116;2024-02-26T10:36:03;1.00;;;1.00;;
7573;SDS011;3828;48.922;9.116;2024-02-26T10:38:32;1.00;;;1.00;;
7573;SDS011;3828;48.922;9.116;2024-02-26T10:40:58;0.90;;;0.90;;
7573;SDS011;3828;48.922;9.116;2024-02-26T10:43:25;1.00;;;1.00;;
7573;SDS011;3828;48.922;9.116;2024-02-26T10:45:54;0.80;;;0.80;;
7573;SDS011;3828;48.922;9.116;2024-02-26T10:48:21;1.07;;;1.07;;
7573;SDS011;3828;48.922;9.116;2024-02-26T10:50:48;0.90;;;0.90;;
7573;SDS011;3828;48.922;9.116;2024-02-26T10:53:19;1.20;;;1.20;;
7573;SDS011;3828;48.922;9.116;2024-02-26T10:55:48;1.10;;;1.10;;
7573;SDS011;3828;48.922;9.116;2024-02-26T10:58:16;1.40;;;1.40;;
7573;SDS011;3828;48.922;9.116;2024-02-26T11:00:43;0.90;;;0.90;;
7573;SDS011;3828;48.922;9.116;2024-02-26T11:03:12;1.13;;;1.13;;
7573;SDS011;3828;48.922;9.116;2024-02-26T11:05:41;1.10;;;1.10;;
7573;SDS011;3828;48.922;9.116;2024-02-26T11:08:08;0.97;;;0.97;;
7573;SDS011;3828;48.922;9.116;2024-02-26T11:10:38;0.80;;;0.80;;
7573;SDS011;3828;48.922;9.116;2024-02-26T11:13:06;1.10;;;1.10;;
7573;SDS011;3828;48.922;9.116;2024-02-26T11:15:33;0.70;;;0.70;;
7573;SDS011;3828;48.922;9.116;2024-02-26T11:18:01;0.93;;;0.93;;
7573;SDS011;3828;48.922;9.116;2024-02-26T11:20:28;0.80;;;0.80;;
7573;SDS011;3828;48.922;9.116;2024-02-26T11:22:55;0.97;;;0.97;;
7573;SDS011;3828;48.922;9.116;2024-02-26T11:25:24;0.67;;;0.67;;
7573;SDS011;3828;48.922;9.116;2024-02-26T11:27:55;0.80;;;0.80;;
7573;SDS011;3828;48.922;9.116;2024-02-26T11:30:26;0.70;;;0.70;;
7573;SDS011;3828;48.922;9.116;2024-02-26T11:33:00;0.50;;;0.50;;
7573;SDS011;3828;48.922;9.116;2024-02-26T11:35:28;1.00;;;1.00;;
7573;SDS011;3828;48.922;9.116;2024-02-26T11:37:55;0.50;;;0.50;;
7573;SDS011;3828;48.922;9.116;2024-02-26T11:40:23;1.00;;;1.00;;
7573;SDS011;3828;48.922;9.116;2024-02-26T11:42:50;0.67;;;0.67;;
7573;SDS011;3828;48.922;9.116;2024-02-26T11:48:25;1.00;;;1.00;;
7573;SDS011;3828;48.922;9.116;2024-02-26T11:50:55;0.67;;;0.67;;
7573;SDS011;3828;48.922;9.116;2024-02-26T11:53:24;0.97;;;0.97;;
7573;SDS011;3828;48.922;9.116;2024-02-26T11:58:53;0.70;;;0.70;;
7573;SDS011;3828;48.922;9.116;2024-02-26T12:01:38;0.87;;;0.87;;
7573;SDS011;3828;48.922;9.116;2024-02-26T12:04:07;0.60;;;0.60;;
7573;SDS011;3828;48.922;9.116;2024-02-26T12:06:40;0.70;;;0.70;;
7573;SDS011;3828;48.922;9.116;2024-02-26T12:09:32;0.57;;;0.57;;
7573;SDS011;3828;48.922;9.116;2024-02-26T12:11:59;0.73;;;0.73;;
7573;SDS011;3828;48.922;9.116;2024-02-26T12:14:28;0.40;;;0.40;;
7573;SDS011;3828;48.922;9.116;2024-02-26T12:16:55;0.60;;;0.60;;
7573;SDS011;3828;48.922;9.116;2024-02-26T12:19:24;0.50;;;0.50;;
7573;SDS011;3828;48.922;9.116;2024-02-26T12:21:51;0.50;;;0.50;;
7573;SDS011;3828;48.922;9.116;2024-02-26T12:24:20;0.53;;;0.53;;
7573;SDS011;3828;48.922;9.116;2024-02-26T12:26:47;0.40;;;0.40;;
7573;SDS011;3828;48.922;9.116;2024-02-26T12:29:14;0.90;;;0.90;;
7573;SDS011;3828;48.922;9.116;2024-02-26T12:31:41;0.70;;;0.70;;
7573;SDS011;3828;48.922;9.116;2024-02-26T12:34:08;0.70;;;0.70;;
7573;SDS011;3828;48.922;9.116;2024-02-26T12:36:37;0.60;;;0.60;;
7573;SDS011;3828;48.922;9.116;2024-02-26T12:39:05;0.90;;;0.90;;
7573;SDS011;3828;48.922;9.116;2024-02-26T12:41:34;0.70;;;0.70;;
7573;SDS011;3828;48.922;9.116;2024-02-26T12:44:01;0.70;;;0.70;;
7573;SDS011;3828;48.922;9.116;2024-02-26T12:46:28;0.70;;;0.70;;
7573;SDS011;3828;48.922;9.116;2024-02-26T12:48:56;0.70;;;0.70;;
7573;SDS011;3828;48.922;9.116;2024-02-26T12:51:23;0.80;;;0.80;;
7573;SDS011;3828;48.922;9.116;2024-02-26T12:53:53;0.80;;;0.80;;
7573;SDS011;3828;48.922;9.116;2024-02-26T12:56:21;0.73;;;0.73;;
7573;SDS011;3828;48.922;9.116;2024-02-26T12:58:49;1.07;;;1.07;;
7573;SDS011;3828;48.922;9.116;2024-02-26T13:01:18;0.83;;;0.83;;
7573;SDS011;3828;48.922;9.116;2024-02-26T13:03:49;0.90;;;0.90;;
7573;SDS011;3828;48.922;9.116;2024-02-26T13:06:17;0.90;;;0.90;;
7573;SDS011;3828;48.922;9.116;2024-02-26T13:08:44;1.00;;;1.00;;
7573;SDS011;3828;48.922;9.116;2024-02-26T13:11:13;0.83;;;0.83;;
7573;SDS011;3828;48.922;9.116;2024-02-26T13:13:40;1.00;;;1.00;;
7573;SDS011;3828;48.922;9.116;2024-02-26T13:16:09;0.90;;;0.90;;
7573;SDS011;3828;48.922;9.116;2024-02-26T13:18:40;0.80;;;0.80;;
7573;SDS011;3828;48.922;9.116;2024-02-26T13:21:08;0.93;;;0.93;;
7573;SDS011;3828;48.922;9.116;2024-02-26T13:23:36;1.10;;;1.10;;
7573;SDS011;3828;48.922;9.116;2024-02-26T13:26:03;1.33;;;1.33;;
7573;SDS011;3828;48.922;9.116;2024-02-26T13:28:32;0.90;;;0.90;;
7573;SDS011;3828;48.922;9.116;2024-02-26T13:31:00;1.23;;;1.23;;
7573;SDS011;3828;48.922;9.116;2024-02-26T13:33:28;0.80;;;0.80;;
7573;SDS011;3828;48.922;9.116;2024-02-26T13:35:56;0.70;;;0.70;;
7573;SDS011;3828;48.922;9.116;2024-02-26T13:38:23;0.70;;;0.70;;
7573;SDS011;3828;48.922;9.116;2024-02-26T13:40:50;0.80;;;0.80;;
7573;SDS011;3828;48.922;9.116;2024-02-26T13:43:17;0.67;;;0.67;;
7573;SDS011;3828;48.922;9.116;2024-02-26T13:45:46;0.80;;;0.80;;
7573;SDS011;3828;48.922;9.116;2024-02-26T13:48:13;0.90;;;0.90;;
7573;SDS011;3828;48.922;9.116;2024-02-26T13:50:41;0.80;;;0.80;;
7573;SDS011;3828;48.922;9.116;2024-02-26T13:53:10;0.80;;;0.80;;
7573;SDS011;3828;48.922;9.116;2024-02-26T13:55:38;0.90;;;0.90;;
7573;SDS011;3828;48.922;9.116;2024-02-26T13:58:07;0.80;;;0.80;;
7573;SDS011;3828;48.922;9.116;2024-02-26T14:00:37;0.90;;;0.90;;
7573;SDS011;3828;48.922;9.116;2024-02-26T14:03:06;0.90;;;0.90;;
7573;SDS011;3828;48.922;9.116;2024-02-26T14:05:33;0.90;;;0.90;;
7573;SDS011;3828;48.922;9.116;2024-02-26T14:08:00;0.93;;;0.93;;
7573;SDS011;3828;48.922;9.116;2024-02-26T14:10:27;0.83;;;0.83;;
7573;SDS011;3828;48.922;9.116;2024-02-26T14:12:55;0.80;;;0.80;;
7573;SDS011;3828;48.922;9.116;2024-02-26T14:15:22;0.80;;;0.80;;
7573;SDS011;3828;48.922;9.116;2024-02-26T14:17:50;1.23;;;1.23;;
7573;SDS011;3828;48.922;9.116;2024-02-26T14:20:22;0.93;;;0.93;;
7573;SDS011;3828;48.922;9.116;2024-02-26T14:22:49;1.10;;;1.10;;
7573;SDS011;3828;48.922;9.116;2024-02-26T14:25:18;0.90;;;0.90;;
7573;SDS011;3828;48.922;9.116;2024-02-26T14:27:45;1.20;;;1.20;;
7573;SDS011;3828;48.922;9.116;2024-02-26T14:30:15;1.13;;;1.13;;
7573;SDS011;3828;48.922;9.116;2024-02-26T14:32:42;0.63;;;0.63;;
7573;SDS011;3828;48.922;9.116;2024-02-26T14:35:09;0.67;;;0.67;;
7573;SDS011;3828;48.922;9.116;2024-02-26T14:37:38;0.70;;;0.70;;
7573;SDS011;3828;48.922;9.116;2024-02-26T14:40:05;0.73;;;0.73;;
7573;SDS011;3828;48.922;9.116;2024-02-26T14:42:33;0.77;;;0.77;;
7573;SDS011;3828;48.922;9.116;2024-02-26T14:45:00;0.80;;;0.80;;
7573;SDS011;3828;48.922;9.116;2024-02-26T14:47:27;0.80;;;0.80;;
7573;SDS011;3828;48.922;9.116;2024-02-26T14:49:54;0.73;;;0.73;;
7573;SDS011;3828;48.922;9.116;2024-02-26T14:52:21;0.80;;;0.80;;
7573;SDS011;3828;48.922;9.116;2024-02-26T14:54:50;0.90;;;0.90;;
7573;SDS011;3828;48.922;9.116;2024-02-26T14:57:17;0.93;;;0.93;;
7573;SDS011;3828;48.922;9.116;2024-02-26T14:59:44;1.00;;;1.00;;
7573;SDS011;3828;48.922;9.116;2024-02-26T15:02:11;0.93;;;0.93;;
7573;SDS011;3828;48.922;9.116;2024-02-26T15:04:38;0.80;;;0.80;;
7573;SDS011;3828;48.922;9.116;2024-02-26T15:07:05;1.37;;;1.37;;
7573;SDS011;3828;48.922;9.116;2024-02-26T15:09:32;0.80;;;0.80;;
7573;SDS011;3828;48.922;9.116;2024-02-26T15:12:02;1.33;;;1.33;;
7573;SDS011;3828;48.922;9.116;2024-02-26T15:14:31;1.00;;;1.00;;
7573;SDS011;3828;48.922;9.116;2024-02-26T15:16:58;1.10;;;1.10;;
7573;SDS011;3828;48.922;9.116;2024-02-26T15:19:26;0.80;;;0.80;;
7573;SDS011;3828;48.922;9.116;2024-02-26T15:21:53;1.10;;;1.10;;
7573;SDS011;3828;48.922;9.116;2024-02-26T15:24:20;0.83;;;0.83;;
7573;SDS011;3828;48.922;9.116;2024-02-26T15:26:46;1.00;;;1.00;;